Language: 


Des rapports , des résumés tant et plus, au choix de chacun....


Données Historiques de Météogheer
Journalier Rapport pour Janvier 26, 2017 Unitée:  Les deux    Impériale   Métrique
Suivant Jour »
Journalier Hebdomadaire Mensuel Annuel Sur mesure
  Max: Min: Moyenne:
Température: 36.3 °F /  2.4 °C 25.5 °F /  -3.6 °C 30 °F /  -1.1 °C
Point de rosée: 27.3 °F /  -2.6 °C 19.2 °F /  -7.1 °C 23.2 °F /  -4.9 °C
Humidité: 88% 62% 76%
Vent: 16.8mph /  27.0km/h - 6mph /  9.7km/h
Rafales: 22.6mph /  36.4km/h - -
Vent- - SSE
Pression: 30.3 in /  1026.0 hPa 30 in /  1016.8 hPa -
Pluie: 0 in /  0.0 mm    
Historical Graphs
 
 
Données tabulaires pour Janvier 26, 2017
Heure Température Point de rosée Pression Vent Vent Rafales Humidité Pluie Taux (Horaire) Conditions
00:03 30.4 °F /  -0.9 °C 27.3 °F /  -2.6 °C 30.3in /  1024.9hPa South 3.8mph /  6.1km/h 8.5mph /  13.7km/h 88% 0in /  0.0mm
00:08 30.4 °F /  -0.9 °C 27.3 °F /  -2.6 °C 30.3in /  1026.0hPa SSE 4.9mph /  7.9km/h 10.5mph /  16.9km/h 88% 0in /  0.0mm
00:13 30.2 °F /  -1.0 °C 27.1 °F /  -2.7 °C 30.3in /  1026.0hPa SSE 5.6mph /  9.0km/h 10.5mph /  16.9km/h 88% 0in /  0.0mm
00:18 30.2 °F /  -1.0 °C 27.1 °F /  -2.7 °C 30.3in /  1026.0hPa SSE 8.7mph /  14.0km/h 8.7mph /  14.0km/h 88% 0in /  0.0mm
00:23 30.2 °F /  -1.0 °C 27.1 °F /  -2.7 °C 30.3in /  1024.9hPa SSE 3.6mph /  5.8km/h 10.5mph /  16.9km/h 88% 0in /  0.0mm
00:28 30.2 °F /  -1.0 °C 27.1 °F /  -2.7 °C 30.3in /  1024.9hPa SSE 6.7mph /  10.8km/h 10.5mph /  16.9km/h 88% 0in /  0.0mm
00:33 30.2 °F /  -1.0 °C 27.1 °F /  -2.7 °C 30.3in /  1024.9hPa SSE 8.1mph /  13.0km/h 9.8mph /  15.8km/h 88% 0in /  0.0mm
00:38 30.2 °F /  -1.0 °C 27.1 °F /  -2.7 °C 30.3in /  1024.9hPa SSW 4.3mph /  6.9km/h 9.8mph /  15.8km/h 88% 0in /  0.0mm
00:43 30 °F /  -1.1 °C 27 °F /  -2.8 °C 30.3in /  1024.9hPa South 5.6mph /  9.0km/h 9.8mph /  15.8km/h 88% 0in /  0.0mm
00:48 29.8 °F /  -1.2 °C 26.8 °F /  -2.9 °C 30.3in /  1024.9hPa SSE 5.6mph /  9.0km/h 8.7mph /  14.0km/h 88% 0in /  0.0mm
00:53 29.7 °F /  -1.3 °C 26.6 °F /  -3.0 °C 30.3in /  1024.9hPa SE 5.8mph /  9.3km/h 8.9mph /  14.3km/h 88% 0in /  0.0mm
00:58 29.5 °F /  -1.4 °C 26.1 °F /  -3.3 °C 30.3in /  1024.9hPa SSE 5.8mph /  9.3km/h 9.8mph /  15.8km/h 87% 0in /  0.0mm
01:03 29.5 °F /  -1.4 °C 26.1 °F /  -3.3 °C 30.3in /  1024.9hPa South 3.8mph /  6.1km/h 9.8mph /  15.8km/h 87% 0in /  0.0mm
01:08 29.5 °F /  -1.4 °C 26.1 °F /  -3.3 °C 30.3in /  1024.9hPa SSE 5.4mph /  8.7km/h 10.5mph /  16.9km/h 87% 0in /  0.0mm
01:13 29.1 °F /  -1.6 °C 25.5 °F /  -3.6 °C 30.3in /  1024.9hPa SSW 4mph /  6.4km/h 10.5mph /  16.9km/h 86% 0in /  0.0mm
01:18 28.8 °F /  -1.8 °C 25.2 °F /  -3.8 °C 30.3in /  1024.9hPa SSE 7.6mph /  12.2km/h 12.5mph /  20.1km/h 86% 0in /  0.0mm
01:23 28.6 °F /  -1.9 °C 24.6 °F /  -4.1 °C 30.3in /  1024.9hPa SSE 4mph /  6.4km/h 12.5mph /  20.1km/h 85% 0in /  0.0mm
01:28 28.6 °F /  -1.9 °C 24.6 °F /  -4.1 °C 30.3in /  1024.9hPa SSW 3.8mph /  6.1km/h 10.1mph /  16.3km/h 85% 0in /  0.0mm
01:33 28.6 °F /  -1.9 °C 24.6 °F /  -4.1 °C 30.3in /  1024.9hPa SSW 5.6mph /  9.0km/h 9.4mph /  15.1km/h 85% 0in /  0.0mm
01:38 28.6 °F /  -1.9 °C 24.6 °F /  -4.1 °C 30.3in /  1024.9hPa South 3.6mph /  5.8km/h 10.5mph /  16.9km/h 85% 0in /  0.0mm
01:43 28.6 °F /  -1.9 °C 24.6 °F /  -4.1 °C 30.3in /  1024.9hPa SSE 6mph /  9.7km/h 12.3mph /  19.8km/h 85% 0in /  0.0mm
01:48 28.6 °F /  -1.9 °C 24.4 °F /  -4.2 °C 30.3in /  1024.9hPa SSW 10.3mph /  16.6km/h 12.3mph /  19.8km/h 85% 0in /  0.0mm
01:53 28.6 °F /  -1.9 °C 24.4 °F /  -4.2 °C 30.3in /  1024.9hPa South 6.5mph /  10.5km/h 10.3mph /  16.6km/h 85% 0in /  0.0mm
01:58 28.6 °F /  -1.9 °C 24.4 °F /  -4.2 °C 30.3in /  1024.9hPa South 9.6mph /  15.4km/h 10.3mph /  16.6km/h 85% 0in /  0.0mm
02:03 28.6 °F /  -1.9 °C 24.4 °F /  -4.2 °C 30.3in /  1024.9hPa SSE 6.5mph /  10.5km/h 10.1mph /  16.3km/h 85% 0in /  0.0mm
02:08 28.6 °F /  -1.9 °C 24.4 °F /  -4.2 °C 30.2in /  1023.9hPa South 7.2mph /  11.6km/h 10.7mph /  17.2km/h 85% 0in /  0.0mm
02:13 28.6 °F /  -1.9 °C 24.3 °F /  -4.3 °C 30.2in /  1023.9hPa SSE 8.5mph /  13.7km/h 13.9mph /  22.4km/h 84% 0in /  0.0mm
02:18 28.6 °F /  -1.9 °C 24.1 °F /  -4.4 °C 30.2in /  1023.9hPa SSE 6.3mph /  10.1km/h 13.9mph /  22.4km/h 83% 0in /  0.0mm
02:23 28.6 °F /  -1.9 °C 24.1 °F /  -4.4 °C 30.3in /  1026.0hPa SSE 3.1mph /  5.0km/h 8.7mph /  14.0km/h 83% 0in /  0.0mm
02:24 28.6 °F /  -1.9 °C 24.1 °F /  -4.4 °C 30.3in /  1026.0hPa South 3.8mph /  6.1km/h 8.7mph /  14.0km/h 83% 0in /  0.0mm
02:29 28.6 °F /  -1.9 °C 24.1 °F /  -4.4 °C 30.3in /  1026.0hPa South 7.8mph /  12.6km/h 9.6mph /  15.4km/h 83% 0in /  0.0mm
02:34 28.6 °F /  -1.9 °C 24.1 °F /  -4.4 °C 30.3in /  1026.0hPa South 4mph /  6.4km/h 9.6mph /  15.4km/h 83% 0in /  0.0mm
02:39 28.6 °F /  -1.9 °C 24.1 °F /  -4.4 °C 30.3in /  1024.9hPa SSE 6.3mph /  10.1km/h 11mph /  17.7km/h 83% 0in /  0.0mm
02:44 28.6 °F /  -1.9 °C 23.7 °F /  -4.6 °C 30.3in /  1024.9hPa SSE 3.1mph /  5.0km/h 11mph /  17.7km/h 82% 0in /  0.0mm
02:49 28.6 °F /  -1.9 °C 23.7 °F /  -4.6 °C 30.3in /  1024.9hPa South 9.6mph /  15.4km/h 10.5mph /  16.9km/h 82% 0in /  0.0mm
02:54 28.6 °F /  -1.9 °C 23.7 °F /  -4.6 °C 30.3in /  1024.9hPa SSE 8.7mph /  14.0km/h 12.3mph /  19.8km/h 82% 0in /  0.0mm
02:59 28.6 °F /  -1.9 °C 23.7 °F /  -4.6 °C 30.3in /  1024.9hPa SSE 7.4mph /  11.9km/h 12.3mph /  19.8km/h 82% 0in /  0.0mm
03:04 28.6 °F /  -1.9 °C 23.7 °F /  -4.6 °C 30.3in /  1024.9hPa South 7.8mph /  12.6km/h 13.2mph /  21.2km/h 82% 0in /  0.0mm
03:09 28.6 °F /  -1.9 °C 23.4 °F /  -4.8 °C 30.2in /  1023.9hPa South 7.6mph /  12.2km/h 12.3mph /  19.8km/h 81% 0in /  0.0mm
03:14 28.2 °F /  -2.1 °C 23.2 °F /  -4.9 °C 30.2in /  1023.9hPa SSE 4.9mph /  7.9km/h 12.3mph /  19.8km/h 81% 0in /  0.0mm
03:19 28.2 °F /  -2.1 °C 23.2 °F /  -4.9 °C 30.2in /  1023.9hPa SSE 5.8mph /  9.3km/h 14.5mph /  23.3km/h 81% 0in /  0.0mm
03:24 28 °F /  -2.2 °C 22.6 °F /  -5.2 °C 30.3in /  1024.9hPa SSE 8.1mph /  13.0km/h 14.5mph /  23.3km/h 80% 0in /  0.0mm
03:29 28 °F /  -2.2 °C 22.6 °F /  -5.2 °C 30.3in /  1024.9hPa SSE 7.4mph /  11.9km/h 13.2mph /  21.2km/h 80% 0in /  0.0mm
03:34 28 °F /  -2.2 °C 22.6 °F /  -5.2 °C 30.3in /  1024.9hPa SE 8.7mph /  14.0km/h 12.1mph /  19.5km/h 80% 0in /  0.0mm
03:39 28 °F /  -2.2 °C 23 °F /  -5.0 °C 30.2in /  1023.9hPa SSE 7.8mph /  12.6km/h 10.5mph /  16.9km/h 81% 0in /  0.0mm
03:44 28 °F /  -2.2 °C 22.6 °F /  -5.2 °C 30.2in /  1023.9hPa South 16.8mph /  27.0km/h 16.8mph /  27.0km/h 80% 0in /  0.0mm
03:49 28 °F /  -2.2 °C 22.6 °F /  -5.2 °C 30.2in /  1023.9hPa SSE 8.7mph /  14.0km/h 16.8mph /  27.0km/h 80% 0in /  0.0mm
03:54 27.9 °F /  -2.3 °C 22.6 °F /  -5.2 °C 30.2in /  1023.9hPa SE 6.3mph /  10.1km/h 16.8mph /  27.0km/h 80% 0in /  0.0mm
03:59 27.9 °F /  -2.3 °C 22.6 °F /  -5.2 °C 30.2in /  1023.9hPa SSE 12.3mph /  19.8km/h 12.5mph /  20.1km/h 80% 0in /  0.0mm
04:04 27.9 °F /  -2.3 °C 22.1 °F /  -5.5 °C 30.2in /  1023.9hPa SE 10.5mph /  16.9km/h 13mph /  20.9km/h 79% 0in /  0.0mm
04:09 27.7 °F /  -2.4 °C 21.9 °F /  -5.6 °C 30.2in /  1022.9hPa SSE 6.3mph /  10.1km/h 13mph /  20.9km/h 79% 0in /  0.0mm
04:14 27.3 °F /  -2.6 °C 21.7 °F /  -5.7 °C 30.2in /  1022.9hPa SSE 10.7mph /  17.2km/h 12.1mph /  19.5km/h 79% 0in /  0.0mm
04:19 27.3 °F /  -2.6 °C 21.7 °F /  -5.7 °C 30.2in /  1022.9hPa South 7.6mph /  12.2km/h 14.8mph /  23.8km/h 79% 0in /  0.0mm
04:24 27.3 °F /  -2.6 °C 21.7 °F /  -5.7 °C 30.2in /  1022.9hPa SSE 5.8mph /  9.3km/h 14.8mph /  23.8km/h 79% 0in /  0.0mm
04:29 27.1 °F /  -2.7 °C 21.6 °F /  -5.8 °C 30.2in /  1022.9hPa SSE 5.4mph /  8.7km/h 13mph /  20.9km/h 79% 0in /  0.0mm
04:34 27.1 °F /  -2.7 °C 21.6 °F /  -5.8 °C 30.2in /  1022.9hPa South 4.9mph /  7.9km/h 13mph /  20.9km/h 79% 0in /  0.0mm
04:39 27.1 °F /  -2.7 °C 21.6 °F /  -5.8 °C 30.2in /  1022.9hPa SSE 5.4mph /  8.7km/h 12.1mph /  19.5km/h 79% 0in /  0.0mm
04:44 27.1 °F /  -2.7 °C 21.6 °F /  -5.8 °C 30.2in /  1022.9hPa SSE 7.6mph /  12.2km/h 12.1mph /  19.5km/h 79% 0in /  0.0mm
04:49 27.3 °F /  -2.6 °C 21.7 °F /  -5.7 °C 30.2in /  1022.9hPa SSE 10.7mph /  17.2km/h 12.8mph /  20.6km/h 79% 0in /  0.0mm
04:54 27.3 °F /  -2.6 °C 21.7 °F /  -5.7 °C 30.2in /  1022.9hPa SSE 6.3mph /  10.1km/h 12.8mph /  20.6km/h 79% 0in /  0.0mm
04:59 27.3 °F /  -2.6 °C 21.7 °F /  -5.7 °C 30.2in /  1022.9hPa South 8.1mph /  13.0km/h 12.3mph /  19.8km/h 79% 0in /  0.0mm
05:04 27.1 °F /  -2.7 °C 21.6 °F /  -5.8 °C 30.2in /  1022.9hPa SSE 7.6mph /  12.2km/h 15.4mph /  24.8km/h 79% 0in /  0.0mm
05:09 27.1 °F /  -2.7 °C 21.6 °F /  -5.8 °C 30.2in /  1022.9hPa South 7.8mph /  12.6km/h 15.4mph /  24.8km/h 79% 0in /  0.0mm
05:14 27.1 °F /  -2.7 °C 21.6 °F /  -5.8 °C 30.2in /  1022.9hPa SSE 8.7mph /  14.0km/h 13mph /  20.9km/h 79% 0in /  0.0mm
05:19 27.1 °F /  -2.7 °C 21.6 °F /  -5.8 °C 30.2in /  1022.9hPa South 4.7mph /  7.6km/h 14.1mph /  22.7km/h 79% 0in /  0.0mm
05:24 27.1 °F /  -2.7 °C 21.6 °F /  -5.8 °C 30.2in /  1022.9hPa SSE 6.3mph /  10.1km/h 14.1mph /  22.7km/h 79% 0in /  0.0mm
05:29 27.1 °F /  -2.7 °C 21.6 °F /  -5.8 °C 30.2in /  1022.9hPa SE 9.6mph /  15.4km/h 13mph /  20.9km/h 79% 0in /  0.0mm
05:34 27.1 °F /  -2.7 °C 21 °F /  -6.1 °C 30.2in /  1022.9hPa SSE 9.8mph /  15.8km/h 14.5mph /  23.3km/h 78% 0in /  0.0mm
05:39 27.1 °F /  -2.7 °C 21 °F /  -6.1 °C 30.2in /  1022.9hPa SSE 14.8mph /  23.8km/h 17.2mph /  27.7km/h 78% 0in /  0.0mm
05:44 27.1 °F /  -2.7 °C 21 °F /  -6.1 °C 30.2in /  1022.9hPa SSE 5.4mph /  8.7km/h 17.2mph /  27.7km/h 78% 0in /  0.0mm
05:49 27 °F /  -2.8 °C 20.8 °F /  -6.2 °C 30.2in /  1022.9hPa SSE 5.4mph /  8.7km/h 14.8mph /  23.8km/h 78% 0in /  0.0mm
05:54 27 °F /  -2.8 °C 20.8 °F /  -6.2 °C 30.2in /  1022.9hPa South 8.1mph /  13.0km/h 10.5mph /  16.9km/h 78% 0in /  0.0mm
05:59 26.8 °F /  -2.9 °C 21 °F /  -6.1 °C 30.2in /  1022.9hPa South 10.5mph /  16.9km/h 12.5mph /  20.1km/h 79% 0in /  0.0mm
06:04 26.8 °F /  -2.9 °C 20.8 °F /  -6.2 °C 30.2in /  1022.9hPa SSE 11mph /  17.7km/h 12.5mph /  20.1km/h 78% 0in /  0.0mm
06:09 26.4 °F /  -3.1 °C 20.7 °F /  -6.3 °C 30.2in /  1022.9hPa South 12.8mph /  20.6km/h 14.5mph /  23.3km/h 78% 0in /  0.0mm
06:14 26.4 °F /  -3.1 °C 20.7 °F /  -6.3 °C 30.2in /  1022.9hPa South 10.5mph /  16.9km/h 14.5mph /  23.3km/h 78% 0in /  0.0mm
06:19 26.4 °F /  -3.1 °C 20.5 °F /  -6.4 °C 30.2in /  1022.9hPa SSW 4.9mph /  7.9km/h 15.4mph /  24.8km/h 78% 0in /  0.0mm
06:24 26.2 °F /  -3.2 °C 20.3 °F /  -6.5 °C 30.2in /  1022.9hPa SSW 12.8mph /  20.6km/h 15.4mph /  24.8km/h 78% 0in /  0.0mm
06:29 26.2 °F /  -3.2 °C 20.3 °F /  -6.5 °C 30.2in /  1022.9hPa SSW 12.8mph /  20.6km/h 16.1mph /  25.9km/h 78% 0in /  0.0mm
06:34 26.2 °F /  -3.2 °C 19.9 °F /  -6.7 °C 30.2in /  1022.9hPa SSE 6mph /  9.7km/h 16.6mph /  26.7km/h 77% 0in /  0.0mm
06:39 26.2 °F /  -3.2 °C 20.3 °F /  -6.5 °C 30.2in /  1021.9hPa South 7.8mph /  12.6km/h 16.6mph /  26.7km/h 78% 0in /  0.0mm
06:44 26.2 °F /  -3.2 °C 20.3 °F /  -6.5 °C 30.2in /  1021.9hPa SSE 16.1mph /  25.9km/h 16.1mph /  25.9km/h 78% 0in /  0.0mm
06:50 26.1 °F /  -3.3 °C 20.1 °F /  -6.6 °C 30.2in /  1021.9hPa SSW 6.5mph /  10.5km/h 16.1mph /  25.9km/h 78% 0in /  0.0mm
06:54 25.9 °F /  -3.4 °C 19.9 °F /  -6.7 °C 30.2in /  1022.9hPa SE 8.5mph /  13.7km/h 16.1mph /  25.9km/h 78% 0in /  0.0mm
06:59 25.9 °F /  -3.4 °C 19.9 °F /  -6.7 °C 30.2in /  1022.9hPa SSE 8.1mph /  13.0km/h 14.5mph /  23.3km/h 78% 0in /  0.0mm
07:04 25.9 °F /  -3.4 °C 19.9 °F /  -6.7 °C 30.2in /  1022.9hPa SE 9.8mph /  15.8km/h 14.8mph /  23.8km/h 78% 0in /  0.0mm
07:09 25.5 °F /  -3.6 °C 19.8 °F /  -6.8 °C 30.2in /  1023.9hPa South 10.5mph /  16.9km/h 14.8mph /  23.8km/h 78% 0in /  0.0mm
07:14 25.5 °F /  -3.6 °C 19.8 °F /  -6.8 °C 30.2in /  1023.9hPa SSE 10.1mph /  16.3km/h 14.8mph /  23.8km/h 78% 0in /  0.0mm
07:19 25.5 °F /  -3.6 °C 19.4 °F /  -7.0 °C 30.2in /  1023.9hPa SSE 10.3mph /  16.6km/h 22.6mph /  36.4km/h 77% 0in /  0.0mm
07:24 25.5 °F /  -3.6 °C 19.4 °F /  -7.0 °C 30.2in /  1022.9hPa SE 7.8mph /  12.6km/h 22.6mph /  36.4km/h 77% 0in /  0.0mm
07:29 25.5 °F /  -3.6 °C 19.4 °F /  -7.0 °C 30.2in /  1022.9hPa SSE 5.6mph /  9.0km/h 15.2mph /  24.5km/h 77% 0in /  0.0mm
07:34 25.5 °F /  -3.6 °C 19.4 °F /  -7.0 °C 30.2in /  1022.9hPa SSE 8.7mph /  14.0km/h 13mph /  20.9km/h 77% 0in /  0.0mm
07:39 25.9 °F /  -3.4 °C 19.6 °F /  -6.9 °C 30.2in /  1022.9hPa SSE 16.3mph /  26.2km/h 16.3mph /  26.2km/h 77% 0in /  0.0mm
07:44 25.9 °F /  -3.4 °C 19.6 °F /  -6.9 °C 30.2in /  1022.9hPa SE 10.5mph /  16.9km/h 16.3mph /  26.2km/h 77% 0in /  0.0mm
07:49 25.9 °F /  -3.4 °C 19.2 °F /  -7.1 °C 30.2in /  1022.9hPa SE 10.3mph /  16.6km/h 15.2mph /  24.5km/h 76% 0in /  0.0mm
07:55 26.1 °F /  -3.3 °C 19.6 °F /  -6.9 °C 30.2in /  1022.9hPa SSE 5.4mph /  8.7km/h 16.1mph /  25.9km/h 76% 0in /  0.0mm
07:59 26.1 °F /  -3.3 °C 19.6 °F /  -6.9 °C 30.2in /  1022.9hPa SSE 7.4mph /  11.9km/h 16.1mph /  25.9km/h 76% 0in /  0.0mm
08:04 26.1 °F /  -3.3 °C 19.8 °F /  -6.8 °C 30.2in /  1022.9hPa SSE 8.5mph /  13.7km/h 12.8mph /  20.6km/h 77% 0in /  0.0mm
08:09 26.2 °F /  -3.2 °C 19.9 °F /  -6.7 °C 30.2in /  1022.9hPa SSE 8.1mph /  13.0km/h 12.1mph /  19.5km/h 77% 0in /  0.0mm
08:14 26.2 °F /  -3.2 °C 19.6 °F /  -6.9 °C 30.2in /  1022.9hPa SSE 8.7mph /  14.0km/h 12.3mph /  19.8km/h 76% 0in /  0.0mm
08:19 26.2 °F /  -3.2 °C 19.9 °F /  -6.7 °C 30.2in /  1022.9hPa SSE 9.6mph /  15.4km/h 12.3mph /  19.8km/h 77% 0in /  0.0mm
08:25 26.2 °F /  -3.2 °C 19.9 °F /  -6.7 °C 30.2in /  1022.9hPa South 4.9mph /  7.9km/h 13.6mph /  21.9km/h 77% 0in /  0.0mm
08:29 26.2 °F /  -3.2 °C 19.9 °F /  -6.7 °C 30.2in /  1022.9hPa South 4.9mph /  7.9km/h 13.6mph /  21.9km/h 77% 0in /  0.0mm
08:35 26.4 °F /  -3.1 °C 20.1 °F /  -6.6 °C 30.2in /  1022.9hPa SSE 6mph /  9.7km/h 13mph /  20.9km/h 77% 0in /  0.0mm
08:40 26.4 °F /  -3.1 °C 19.8 °F /  -6.8 °C 30.2in /  1022.9hPa South 5.6mph /  9.0km/h 13mph /  20.9km/h 76% 0in /  0.0mm
08:45 26.2 °F /  -3.2 °C 19.6 °F /  -6.9 °C 30.2in /  1022.9hPa South 5.4mph /  8.7km/h 10.5mph /  16.9km/h 76% 0in /  0.0mm
08:50 26.1 °F /  -3.3 °C 19.6 °F /  -6.9 °C 30.2in /  1022.9hPa SSE 7.8mph /  12.6km/h 10.3mph /  16.6km/h 76% 0in /  0.0mm
08:55 26.1 °F /  -3.3 °C 19.6 °F /  -6.9 °C 30.2in /  1022.9hPa SSE 5.6mph /  9.0km/h 9.6mph /  15.4km/h 76% 0in /  0.0mm
09:00 26.1 °F /  -3.3 °C 19.6 °F /  -6.9 °C 30.2in /  1022.9hPa SE 3.8mph /  6.1km/h 10.3mph /  16.6km/h 76% 0in /  0.0mm
09:05 26.1 °F /  -3.3 °C 19.8 °F /  -6.8 °C 30.2in /  1022.9hPa ESE 4.9mph /  7.9km/h 10.3mph /  16.6km/h 77% 0in /  0.0mm
09:10 26.1 °F /  -3.3 °C 19.8 °F /  -6.8 °C 30.2in /  1022.9hPa South 3.4mph /  5.5km/h 7.8mph /  12.6km/h 77% 0in /  0.0mm
09:15 26.1 °F /  -3.3 °C 19.8 °F /  -6.8 °C 30.2in /  1022.9hPa SSE 6.3mph /  10.1km/h 6.5mph /  10.5km/h 77% 0in /  0.0mm
09:20 26.1 °F /  -3.3 °C 19.8 °F /  -6.8 °C 30.2in /  1022.9hPa SSE 11.9mph /  19.1km/h 11.9mph /  19.1km/h 77% 0in /  0.0mm
09:25 26.2 °F /  -3.2 °C 19.9 °F /  -6.7 °C 30.2in /  1022.9hPa SSE 9.6mph /  15.4km/h 11.9mph /  19.1km/h 77% 0in /  0.0mm
09:30 26.2 °F /  -3.2 °C 19.9 °F /  -6.7 °C 30.2in /  1022.9hPa South 5.6mph /  9.0km/h 10.7mph /  17.2km/h 77% 0in /  0.0mm
09:35 26.4 °F /  -3.1 °C 20.1 °F /  -6.6 °C 30.2in /  1022.9hPa South 7.8mph /  12.6km/h 13.2mph /  21.2km/h 77% 0in /  0.0mm
09:40 26.8 °F /  -2.9 °C 20.5 °F /  -6.4 °C 30.2in /  1022.9hPa SSE 6.5mph /  10.5km/h 13.2mph /  21.2km/h 77% 0in /  0.0mm
09:45 27 °F /  -2.8 °C 20.7 °F /  -6.3 °C 30.2in /  1022.9hPa SSE 7.8mph /  12.6km/h 11mph /  17.7km/h 77% 0in /  0.0mm
09:50 27.1 °F /  -2.7 °C 20.8 °F /  -6.2 °C 30.2in /  1022.9hPa SSE 5.8mph /  9.3km/h 11mph /  17.7km/h 77% 0in /  0.0mm
09:55 27.1 °F /  -2.7 °C 20.7 °F /  -6.3 °C 30.2in /  1022.9hPa South 4mph /  6.4km/h 11mph /  17.7km/h 76% 0in /  0.0mm
10:00 27.3 °F /  -2.6 °C 20.8 °F /  -6.2 °C 30.2in /  1022.9hPa SSE 11mph /  17.7km/h 11mph /  17.7km/h 76% 0in /  0.0mm
10:05 27.7 °F /  -2.4 °C 20.7 °F /  -6.3 °C 30.2in /  1022.9hPa SSE 7.2mph /  11.6km/h 14.5mph /  23.3km/h 75% 0in /  0.0mm
10:10 27.7 °F /  -2.4 °C 20.7 °F /  -6.3 °C 30.2in /  1022.9hPa SSE 6.5mph /  10.5km/h 14.5mph /  23.3km/h 75% 0in /  0.0mm
10:15 27.9 °F /  -2.3 °C 21.4 °F /  -5.9 °C 30.2in /  1022.9hPa SSE 3.1mph /  5.0km/h 12.8mph /  20.6km/h 76% 0in /  0.0mm
10:20 28 °F /  -2.2 °C 21.6 °F /  -5.8 °C 30.2in /  1022.9hPa SSW 3.4mph /  5.5km/h 11.9mph /  19.1km/h 76% 0in /  0.0mm
10:21 28 °F /  -2.2 °C 21.6 °F /  -5.8 °C 30.2in /  1022.9hPa South 5.6mph /  9.0km/h 11.9mph /  19.1km/h 76% 0in /  0.0mm
10:26 28.2 °F /  -2.1 °C 21.4 °F /  -5.9 °C 30.2in /  1022.9hPa South 6mph /  9.7km/h 11.9mph /  19.1km/h 75% 0in /  0.0mm
10:31 28.6 °F /  -1.9 °C 21.6 °F /  -5.8 °C 30.2in /  1022.9hPa SSE 7.4mph /  11.9km/h 13.9mph /  22.4km/h 75% 0in /  0.0mm
10:36 28.6 °F /  -1.9 °C 21.4 °F /  -5.9 °C 30.2in /  1022.9hPa SSW 2.7mph /  4.3km/h 13.9mph /  22.4km/h 74% 0in /  0.0mm
10:41 28.9 °F /  -1.7 °C 21.7 °F /  -5.7 °C 30.2in /  1022.9hPa East 10.7mph /  17.2km/h 13mph /  20.9km/h 74% 0in /  0.0mm
10:46 29.1 °F /  -1.6 °C 21.9 °F /  -5.6 °C 30.2in /  1022.9hPa SSE 10.1mph /  16.3km/h 10.7mph /  17.2km/h 74% 0in /  0.0mm
10:51 29.5 °F /  -1.4 °C 21.7 °F /  -5.7 °C 30.2in /  1022.9hPa South 6mph /  9.7km/h 10.7mph /  17.2km/h 73% 0in /  0.0mm
10:56 29.5 °F /  -1.4 °C 21.9 °F /  -5.6 °C 30.2in /  1022.9hPa SSE 6.3mph /  10.1km/h 10.7mph /  17.2km/h 73% 0in /  0.0mm
11:01 29.7 °F /  -1.3 °C 22.1 °F /  -5.5 °C 30.2in /  1022.9hPa East 5.6mph /  9.0km/h 10.5mph /  16.9km/h 73% 0in /  0.0mm
11:06 29.7 °F /  -1.3 °C 21.7 °F /  -5.7 °C 30.2in /  1022.9hPa SSE 8.5mph /  13.7km/h 9.8mph /  15.8km/h 72% 0in /  0.0mm
11:11 30.2 °F /  -1.0 °C 22.6 °F /  -5.2 °C 30.2in /  1021.9hPa SSW 6.3mph /  10.1km/h 9.8mph /  15.8km/h 73% 0in /  0.0mm
11:16 30.2 °F /  -1.0 °C 22.6 °F /  -5.2 °C 30.2in /  1021.9hPa SSE 5.8mph /  9.3km/h 13mph /  20.9km/h 73% 0in /  0.0mm
11:21 30.2 °F /  -1.0 °C 21.9 °F /  -5.6 °C 30.2in /  1021.9hPa SSE 7.8mph /  12.6km/h 13mph /  20.9km/h 71% 0in /  0.0mm
11:26 30.2 °F /  -1.0 °C 21.6 °F /  -5.8 °C 30.2in /  1021.9hPa South 8.7mph /  14.0km/h 14.8mph /  23.8km/h 70% 0in /  0.0mm
11:31 30.6 °F /  -0.8 °C 21.9 °F /  -5.6 °C 30.2in /  1021.9hPa SSE 6.3mph /  10.1km/h 14.8mph /  23.8km/h 70% 0in /  0.0mm
11:36 30.9 °F /  -0.6 °C 22.6 °F /  -5.2 °C 30.2in /  1021.9hPa SSE 7.6mph /  12.2km/h 12.5mph /  20.1km/h 71% 0in /  0.0mm
11:41 31.1 °F /  -0.5 °C 22.8 °F /  -5.1 °C 30.2in /  1021.9hPa South 3.8mph /  6.1km/h 10.7mph /  17.2km/h 71% 0in /  0.0mm
11:46 31.5 °F /  -0.3 °C 22.8 °F /  -5.1 °C 30.2in /  1021.9hPa SSW 5.6mph /  9.0km/h 10.7mph /  17.2km/h 70% 0in /  0.0mm
11:51 31.3 °F /  -0.4 °C 22.3 °F /  -5.4 °C 30.2in /  1021.9hPa South 9.6mph /  15.4km/h 12.8mph /  20.6km/h 69% 0in /  0.0mm
11:56 31.5 °F /  -0.3 °C 22.1 °F /  -5.5 °C 30.2in /  1021.9hPa South 13.9mph /  22.4km/h 13.9mph /  22.4km/h 68% 0in /  0.0mm
12:01 31.5 °F /  -0.3 °C 22.1 °F /  -5.5 °C 30.2in /  1021.9hPa SSE 7.8mph /  12.6km/h 13.9mph /  22.4km/h 68% 0in /  0.0mm
12:06 31.5 °F /  -0.3 °C 21.7 °F /  -5.7 °C 30.2in /  1021.9hPa SE 5.6mph /  9.0km/h 13.9mph /  22.4km/h 67% 0in /  0.0mm
12:11 31.8 °F /  -0.1 °C 22.5 °F /  -5.3 °C 30.2in /  1021.9hPa South 12.3mph /  19.8km/h 13.9mph /  22.4km/h 68% 0in /  0.0mm
12:16 32.2 °F /  0.1 °C 22.8 °F /  -5.1 °C 30.2in /  1021.9hPa SSE 6.3mph /  10.1km/h 13.4mph /  21.6km/h 68% 0in /  0.0mm
12:21 32.4 °F /  0.2 °C 23 °F /  -5.0 °C 30.2in /  1021.9hPa SSE 8.7mph /  14.0km/h 13.4mph /  21.6km/h 68% 0in /  0.0mm
12:26 32.2 °F /  0.1 °C 22.5 °F /  -5.3 °C 30.2in /  1020.9hPa South 7.4mph /  11.9km/h 13mph /  20.9km/h 67% 0in /  0.0mm
12:27 32.2 °F /  0.1 °C 22.5 °F /  -5.3 °C 30.2in /  1020.9hPa South 7.8mph /  12.6km/h 13mph /  20.9km/h 67% 0in /  0.0mm
12:32 32.4 °F /  0.2 °C 22.6 °F /  -5.2 °C 30.2in /  1020.9hPa SSE 12.8mph /  20.6km/h 15.9mph /  25.6km/h 67% 0in /  0.0mm
12:37 32.7 °F /  0.4 °C 22.8 °F /  -5.1 °C 30.2in /  1020.9hPa SSE 7.6mph /  12.2km/h 15.9mph /  25.6km/h 67% 0in /  0.0mm
12:42 33.1 °F /  0.6 °C 23.5 °F /  -4.7 °C 30.2in /  1020.9hPa South 4mph /  6.4km/h 12.8mph /  20.6km/h 68% 0in /  0.0mm
12:47 33.3 °F /  0.7 °C 23.7 °F /  -4.6 °C 30.2in /  1020.9hPa South 7.4mph /  11.9km/h 12.8mph /  20.6km/h 68% 0in /  0.0mm
12:52 33.3 °F /  0.7 °C 23.2 °F /  -4.9 °C 30.2in /  1020.9hPa South 6mph /  9.7km/h 12.8mph /  20.6km/h 66% 0in /  0.0mm
12:57 33.4 °F /  0.8 °C 23.5 °F /  -4.7 °C 30.2in /  1020.9hPa South 9.4mph /  15.1km/h 11.2mph /  18.0km/h 67% 0in /  0.0mm
13:02 33.6 °F /  0.9 °C 23.4 °F /  -4.8 °C 30.2in /  1020.9hPa South 5.4mph /  8.7km/h 11.2mph /  18.0km/h 66% 0in /  0.0mm
13:07 33.6 °F /  0.9 °C 23.4 °F /  -4.8 °C 30.2in /  1020.9hPa South 10.1mph /  16.3km/h 12.1mph /  19.5km/h 66% 0in /  0.0mm
13:12 33.6 °F /  0.9 °C 23.2 °F /  -4.9 °C 30.2in /  1020.9hPa South 10.7mph /  17.2km/h 13mph /  20.9km/h 65% 0in /  0.0mm
13:17 33.8 °F /  1.0 °C 23.2 °F /  -4.9 °C 30.2in /  1020.9hPa SSE 9.6mph /  15.4km/h 13mph /  20.9km/h 65% 0in /  0.0mm
13:22 34 °F /  1.1 °C 23.4 °F /  -4.8 °C 30.2in /  1020.9hPa South 7.4mph /  11.9km/h 12.1mph /  19.5km/h 65% 0in /  0.0mm
13:27 34.3 °F /  1.3 °C 24.1 °F /  -4.4 °C 30.2in /  1020.9hPa SSE 9.6mph /  15.4km/h 10.3mph /  16.6km/h 66% 0in /  0.0mm
13:32 34.3 °F /  1.3 °C 23.7 °F /  -4.6 °C 30.2in /  1020.9hPa SSE 7.6mph /  12.2km/h 10.3mph /  16.6km/h 65% 0in /  0.0mm
13:37 34.3 °F /  1.3 °C 23.4 °F /  -4.8 °C 30.2in /  1020.9hPa ESE 6.5mph /  10.5km/h 10.5mph /  16.9km/h 64% 0in /  0.0mm
13:42 34.3 °F /  1.3 °C 23.4 °F /  -4.8 °C 30.2in /  1020.9hPa SSE 11mph /  17.7km/h 11mph /  17.7km/h 64% 0in /  0.0mm
13:47 34.5 °F /  1.4 °C 23.9 °F /  -4.5 °C 30.2in /  1020.9hPa SSE 6.3mph /  10.1km/h 13.2mph /  21.2km/h 65% 0in /  0.0mm
13:52 34.9 °F /  1.6 °C 24.3 °F /  -4.3 °C 30.2in /  1020.9hPa SSE 4mph /  6.4km/h 13.2mph /  21.2km/h 65% 0in /  0.0mm
13:57 35.1 °F /  1.7 °C 24.4 °F /  -4.2 °C 30.2in /  1020.9hPa SSE 7.4mph /  11.9km/h 12.8mph /  20.6km/h 65% 0in /  0.0mm
14:02 35.2 °F /  1.8 °C 24.6 °F /  -4.1 °C 30.2in /  1020.9hPa SE 8.1mph /  13.0km/h 8.1mph /  13.0km/h 65% 0in /  0.0mm
14:07 35.4 °F /  1.9 °C 24.8 °F /  -4.0 °C 30.2in /  1020.9hPa SSE 3.1mph /  5.0km/h 8.1mph /  13.0km/h 65% 0in /  0.0mm
14:12 35.4 °F /  1.9 °C 24.4 °F /  -4.2 °C 30.2in /  1020.9hPa SSE 6.3mph /  10.1km/h 10.5mph /  16.9km/h 64% 0in /  0.0mm
14:17 35.4 °F /  1.9 °C 24.3 °F /  -4.3 °C 30.2in /  1020.9hPa SSE 7.4mph /  11.9km/h 10.5mph /  16.9km/h 63% 0in /  0.0mm
14:22 35.4 °F /  1.9 °C 24.4 °F /  -4.2 °C 30.1in /  1019.9hPa SSE 6.3mph /  10.1km/h 9.8mph /  15.8km/h 64% 0in /  0.0mm
14:27 35.8 °F /  2.1 °C 24.6 °F /  -4.1 °C 30.1in /  1019.9hPa SSE 4mph /  6.4km/h 8.7mph /  14.0km/h 64% 0in /  0.0mm
14:32 36.1 °F /  2.3 °C 25 °F /  -3.9 °C 30.1in /  1019.9hPa South 8.5mph /  13.7km/h 8.5mph /  13.7km/h 64% 0in /  0.0mm
14:37 36.1 °F /  2.3 °C 25 °F /  -3.9 °C 30.1in /  1019.9hPa SSE 4mph /  6.4km/h 8.5mph /  13.7km/h 64% 0in /  0.0mm
14:42 36.1 °F /  2.3 °C 25.2 °F /  -3.8 °C 30.1in /  1019.9hPa SSE 8.1mph /  13.0km/h 8.5mph /  13.7km/h 64% 0in /  0.0mm
14:47 36.1 °F /  2.3 °C 24.6 °F /  -4.1 °C 30.1in /  1019.9hPa SE 9.6mph /  15.4km/h 9.6mph /  15.4km/h 63% 0in /  0.0mm
14:52 36 °F /  2.2 °C 24.1 °F /  -4.4 °C 30.1in /  1019.9hPa SE 7.4mph /  11.9km/h 10.3mph /  16.6km/h 62% 0in /  0.0mm
14:57 36.1 °F /  2.3 °C 24.3 °F /  -4.3 °C 30.1in /  1019.9hPa SE 9.6mph /  15.4km/h 10.3mph /  16.6km/h 62% 0in /  0.0mm
15:02 36.1 °F /  2.3 °C 24.3 °F /  -4.3 °C 30.1in /  1019.9hPa South 7.4mph /  11.9km/h 10.1mph /  16.3km/h 62% 0in /  0.0mm
15:07 36.1 °F /  2.3 °C 24.8 °F /  -4.0 °C 30.1in /  1019.9hPa South 8.1mph /  13.0km/h 9.4mph /  15.1km/h 63% 0in /  0.0mm
15:12 36.1 °F /  2.3 °C 24.4 °F /  -4.2 °C 30.1in /  1019.9hPa SSE 5.8mph /  9.3km/h 10.7mph /  17.2km/h 62% 0in /  0.0mm
15:17 36.1 °F /  2.3 °C 24.8 °F /  -4.0 °C 30.1in /  1019.9hPa South 5.6mph /  9.0km/h 10.7mph /  17.2km/h 63% 0in /  0.0mm
15:22 36.1 °F /  2.3 °C 24.8 °F /  -4.0 °C 30.1in /  1018.8hPa SSE 4.3mph /  6.9km/h 9.8mph /  15.8km/h 63% 0in /  0.0mm
15:27 36.1 °F /  2.3 °C 24.4 °F /  -4.2 °C 30.1in /  1018.8hPa SSE 4.3mph /  6.9km/h 10.3mph /  16.6km/h 62% 0in /  0.0mm
15:32 36.1 °F /  2.3 °C 24.8 °F /  -4.0 °C 30.1in /  1018.8hPa SE 8.7mph /  14.0km/h 10.3mph /  16.6km/h 63% 0in /  0.0mm
15:33 36.1 °F /  2.3 °C 24.8 °F /  -4.0 °C 30.1in /  1018.8hPa SE 8.1mph /  13.0km/h 10.3mph /  16.6km/h 63% 0in /  0.0mm
15:38 36.1 °F /  2.3 °C 24.8 °F /  -4.0 °C 30.1in /  1018.8hPa SSE 7.8mph /  12.6km/h 8.7mph /  14.0km/h 63% 0in /  0.0mm
15:43 36.1 °F /  2.3 °C 25.2 °F /  -3.8 °C 30.1in /  1018.8hPa SSE 2.9mph /  4.7km/h 8.1mph /  13.0km/h 64% 0in /  0.0mm
15:48 36.3 °F /  2.4 °C 25 °F /  -3.9 °C 30.1in /  1018.8hPa South 3.6mph /  5.8km/h 10.7mph /  17.2km/h 63% 0in /  0.0mm
15:53 36.3 °F /  2.4 °C 25.3 °F /  -3.7 °C 30.1in /  1018.8hPa SE 7.2mph /  11.6km/h 10.7mph /  17.2km/h 64% 0in /  0.0mm
15:58 36.1 °F /  2.3 °C 24.8 °F /  -4.0 °C 30.1in /  1018.8hPa ESE 7.4mph /  11.9km/h 8.1mph /  13.0km/h 63% 0in /  0.0mm
16:03 36.1 °F /  2.3 °C 24.8 °F /  -4.0 °C 30.1in /  1018.8hPa SSE 6.3mph /  10.1km/h 8.1mph /  13.0km/h 63% 0in /  0.0mm
16:08 36.1 °F /  2.3 °C 25.2 °F /  -3.8 °C 30.1in /  1018.2hPa SSE 3.4mph /  5.5km/h 7.8mph /  12.6km/h 64% 0in /  0.0mm
16:13 36.1 °F /  2.3 °C 25.2 °F /  -3.8 °C 30.1in /  1018.2hPa SSE 3.8mph /  6.1km/h 8.1mph /  13.0km/h 64% 0in /  0.0mm
16:18 36.1 °F /  2.3 °C 25.2 °F /  -3.8 °C 30.1in /  1018.2hPa SSE 4mph /  6.4km/h 8.1mph /  13.0km/h 64% 0in /  0.0mm
16:23 36.1 °F /  2.3 °C 25.3 °F /  -3.7 °C 30.1in /  1018.8hPa SSE 5.6mph /  9.0km/h 6.5mph /  10.5km/h 65% 0in /  0.0mm
16:28 35.8 °F /  2.1 °C 25.2 °F /  -3.8 °C 30.1in /  1018.8hPa SSE 5.8mph /  9.3km/h 6.5mph /  10.5km/h 65% 0in /  0.0mm
16:33 35.4 °F /  1.9 °C 24.8 °F /  -4.0 °C 30.1in /  1018.8hPa SSE 6.3mph /  10.1km/h 7.4mph /  11.9km/h 65% 0in /  0.0mm
16:38 35.4 °F /  1.9 °C 25.2 °F /  -3.8 °C 30.1in /  1018.2hPa SSE 3.6mph /  5.8km/h 7.4mph /  11.9km/h 66% 0in /  0.0mm
16:43 35.2 °F /  1.8 °C 25 °F /  -3.9 °C 30.1in /  1018.2hPa SSE 4.3mph /  6.9km/h 7.4mph /  11.9km/h 66% 0in /  0.0mm
16:48 35.1 °F /  1.7 °C 25.2 °F /  -3.8 °C 30.1in /  1018.2hPa SSE 6.3mph /  10.1km/h 7.4mph /  11.9km/h 67% 0in /  0.0mm
16:53 34.9 °F /  1.6 °C 25 °F /  -3.9 °C 30.1in /  1018.8hPa SSE 5.8mph /  9.3km/h 8.1mph /  13.0km/h 67% 0in /  0.0mm
16:58 34.5 °F /  1.4 °C 25.2 °F /  -3.8 °C 30.1in /  1018.8hPa SSE 4mph /  6.4km/h 8.1mph /  13.0km/h 68% 0in /  0.0mm
17:03 34.3 °F /  1.3 °C 24.8 °F /  -4.0 °C 30.1in /  1018.8hPa SE 2.9mph /  4.7km/h 5.8mph /  9.3km/h 68% 0in /  0.0mm
17:08 34.2 °F /  1.2 °C 25 °F /  -3.9 °C 30.1in /  1018.8hPa SE 2.7mph /  4.3km/h 5.8mph /  9.3km/h 69% 0in /  0.0mm
17:13 33.8 °F /  1.0 °C 24.6 °F /  -4.1 °C 30.1in /  1018.8hPa ESE 3.8mph /  6.1km/h 5.8mph /  9.3km/h 69% 0in /  0.0mm
17:18 33.6 °F /  0.9 °C 24.8 °F /  -4.0 °C 30.1in /  1018.8hPa SE 3.1mph /  5.0km/h 5.4mph /  8.7km/h 70% 0in /  0.0mm
17:23 33.4 °F /  0.8 °C 25 °F /  -3.9 °C 30.1in /  1018.8hPa SSE 3.6mph /  5.8km/h 5.8mph /  9.3km/h 71% 0in /  0.0mm
17:28 33.3 °F /  0.7 °C 24.8 °F /  -4.0 °C 30.1in /  1018.8hPa SE 3.1mph /  5.0km/h 5.8mph /  9.3km/h 71% 0in /  0.0mm
17:33 33.1 °F /  0.6 °C 24.6 °F /  -4.1 °C 30.1in /  1018.8hPa SE 5.6mph /  9.0km/h 5.8mph /  9.3km/h 71% 0in /  0.0mm
17:35 33.1 °F /  0.6 °C 25 °F /  -3.9 °C 30.1in /  1018.8hPa South 4mph /  6.4km/h 6mph /  9.7km/h 72% 0in /  0.0mm
17:40 33.1 °F /  0.6 °C 25 °F /  -3.9 °C 30.1in /  1018.8hPa SE 2.5mph /  4.0km/h 6mph /  9.7km/h 72% 0in /  0.0mm
17:45 32.7 °F /  0.4 °C 24.6 °F /  -4.1 °C 30.1in /  1018.8hPa ESE 3.6mph /  5.8km/h 5.4mph /  8.7km/h 72% 0in /  0.0mm
17:50 32.7 °F /  0.4 °C 24.6 °F /  -4.1 °C 30.1in /  1018.8hPa SE 3.4mph /  5.5km/h 5.8mph /  9.3km/h 72% 0in /  0.0mm
17:55 32.5 °F /  0.3 °C 24.8 °F /  -4.0 °C 30.1in /  1018.2hPa SSE 3.8mph /  6.1km/h 5.8mph /  9.3km/h 73% 0in /  0.0mm
18:00 32.5 °F /  0.3 °C 24.8 °F /  -4.0 °C 30.1in /  1018.2hPa SE 3.6mph /  5.8km/h 5.4mph /  8.7km/h 73% 0in /  0.0mm
18:05 32.4 °F /  0.2 °C 24.6 °F /  -4.1 °C 30.1in /  1018.2hPa SE 2mph /  3.2km/h 4.9mph /  7.9km/h 73% 0in /  0.0mm
18:10 32.2 °F /  0.1 °C 24.4 °F /  -4.2 °C 30.1in /  1018.8hPa Calm   4mph /  6.4km/h 73% 0in /  0.0mm
18:15 32 °F /  0.0 °C 24.6 °F /  -4.1 °C 30.1in /  1018.8hPa SE 2.5mph /  4.0km/h 4.9mph /  7.9km/h 74% 0in /  0.0mm
18:20 31.8 °F /  -0.1 °C 24.4 °F /  -4.2 °C 30.1in /  1018.8hPa SE 2.9mph /  4.7km/h 4.9mph /  7.9km/h 74% 0in /  0.0mm
18:25 31.8 °F /  -0.1 °C 24.4 °F /  -4.2 °C 30.1in /  1018.8hPa ESE 3.1mph /  5.0km/h 4.9mph /  7.9km/h 74% 0in /  0.0mm
18:30 31.6 °F /  -0.2 °C 24.6 °F /  -4.1 °C 30.1in /  1018.8hPa ESE 3.6mph /  5.8km/h 4.3mph /  6.9km/h 75% 0in /  0.0mm
18:35 31.5 °F /  -0.3 °C 24.4 °F /  -4.2 °C 30.1in /  1018.8hPa ENE 3.1mph /  5.0km/h 4.7mph /  7.6km/h 75% 0in /  0.0mm
18:40 31.1 °F /  -0.5 °C 24.1 °F /  -4.4 °C 30.1in /  1018.8hPa East 2.5mph /  4.0km/h 4.7mph /  7.6km/h 75% 0in /  0.0mm
18:45 30.7 °F /  -0.7 °C 23.7 °F /  -4.6 °C 30.1in /  1018.8hPa Calm   3.6mph /  5.8km/h 75% 0in /  0.0mm
18:50 30.4 °F /  -0.9 °C 23.4 °F /  -4.8 °C 30.1in /  1018.8hPa East 3.1mph /  5.0km/h 4mph /  6.4km/h 75% 0in /  0.0mm
18:55 30.2 °F /  -1.0 °C 23.5 °F /  -4.7 °C 30.1in /  1018.8hPa East 3.4mph /  5.5km/h 4mph /  6.4km/h 76% 0in /  0.0mm
19:00 30.2 °F /  -1.0 °C 23.9 °F /  -4.5 °C 30.1in /  1018.8hPa East 3.4mph /  5.5km/h 3.4mph /  5.5km/h 77% 0in /  0.0mm
19:05 30.2 °F /  -1.0 °C 23.9 °F /  -4.5 °C 30.1in /  1018.8hPa East 2.5mph /  4.0km/h 3.4mph /  5.5km/h 77% 0in /  0.0mm
19:10 29.8 °F /  -1.2 °C 23.5 °F /  -4.7 °C 30.1in /  1018.8hPa East 2.5mph /  4.0km/h 3.1mph /  5.0km/h 77% 0in /  0.0mm
19:15 29.7 °F /  -1.3 °C 23.4 °F /  -4.8 °C 30.1in /  1018.8hPa Calm   2.9mph /  4.7km/h 77% 0in /  0.0mm
19:20 29.5 °F /  -1.4 °C 23.2 °F /  -4.9 °C 30.1in /  1018.8hPa East 3.4mph /  5.5km/h 3.4mph /  5.5km/h 77% 0in /  0.0mm
19:25 29.5 °F /  -1.4 °C 23.4 °F /  -4.8 °C 30.1in /  1018.8hPa Calm   3.4mph /  5.5km/h 78% 0in /  0.0mm
19:27 29.5 °F /  -1.4 °C 23.4 °F /  -4.8 °C 30.1in /  1018.8hPa Calm   3.4mph /  5.5km/h 78% 0in /  0.0mm
19:32 29.1 °F /  -1.6 °C 23.2 °F /  -4.9 °C 30.1in /  1018.8hPa Calm   3.1mph /  5.0km/h 78% 0in /  0.0mm
19:37 29.1 °F /  -1.6 °C 23.5 °F /  -4.7 °C 30.1in /  1018.8hPa ESE 2.9mph /  4.7km/h 3.6mph /  5.8km/h 79% 0in /  0.0mm
19:42 29.5 °F /  -1.4 °C 23.5 °F /  -4.7 °C 30.1in /  1018.8hPa ESE 3.8mph /  6.1km/h 4mph /  6.4km/h 79% 0in /  0.0mm
19:47 29.5 °F /  -1.4 °C 23.9 °F /  -4.5 °C 30.1in /  1018.8hPa East 3.6mph /  5.8km/h 4mph /  6.4km/h 80% 0in /  0.0mm
19:52 29.5 °F /  -1.4 °C 24.1 °F /  -4.4 °C 30.1in /  1018.8hPa East 2.9mph /  4.7km/h 3.8mph /  6.1km/h 80% 0in /  0.0mm
19:57 29.5 °F /  -1.4 °C 23.9 °F /  -4.5 °C 30.1in /  1018.8hPa ESE 2.5mph /  4.0km/h 3.8mph /  6.1km/h 80% 0in /  0.0mm
20:02 29.1 °F /  -1.6 °C 23.7 °F /  -4.6 °C 30.1in /  1018.8hPa ESE 2.7mph /  4.3km/h 3.4mph /  5.5km/h 80% 0in /  0.0mm
20:07 29.1 °F /  -1.6 °C 23.7 °F /  -4.6 °C 30.1in /  1018.8hPa ESE 3.8mph /  6.1km/h 4mph /  6.4km/h 80% 0in /  0.0mm
20:12 29.1 °F /  -1.6 °C 23.7 °F /  -4.6 °C 30.1in /  1018.8hPa East 3.6mph /  5.8km/h 4mph /  6.4km/h 80% 0in /  0.0mm
20:17 29.1 °F /  -1.6 °C 24.1 °F /  -4.4 °C 30.1in /  1018.8hPa ESE 2.7mph /  4.3km/h 4.9mph /  7.9km/h 81% 0in /  0.0mm
20:22 29.1 °F /  -1.6 °C 24.1 °F /  -4.4 °C 30.1in /  1018.8hPa ESE 4mph /  6.4km/h 4.9mph /  7.9km/h 81% 0in /  0.0mm
20:27 29.1 °F /  -1.6 °C 24.4 °F /  -4.2 °C 30.1in /  1018.8hPa ESE 3.6mph /  5.8km/h 4.3mph /  6.9km/h 82% 0in /  0.0mm
20:32 29.1 °F /  -1.6 °C 24.4 °F /  -4.2 °C 30.1in /  1018.8hPa ESE 2.7mph /  4.3km/h 4.3mph /  6.9km/h 82% 0in /  0.0mm
20:37 28.9 °F /  -1.7 °C 24.3 °F /  -4.3 °C 30.1in /  1018.8hPa ESE 2.2mph /  3.5km/h 4.3mph /  6.9km/h 82% 0in /  0.0mm
20:42 28.9 °F /  -1.7 °C 24.3 °F /  -4.3 °C 30.1in /  1018.8hPa ESE 2mph /  3.2km/h 3.4mph /  5.5km/h 82% 0in /  0.0mm
20:47 28.8 °F /  -1.8 °C 24.1 °F /  -4.4 °C 30.1in /  1018.8hPa ESE 2.9mph /  4.7km/h 3.4mph /  5.5km/h 82% 0in /  0.0mm
20:52 28.8 °F /  -1.8 °C 24.1 °F /  -4.4 °C 30.1in /  1018.2hPa ESE 2.5mph /  4.0km/h 3.1mph /  5.0km/h 82% 0in /  0.0mm
20:57 28.6 °F /  -1.9 °C 23.7 °F /  -4.6 °C 30.1in /  1018.2hPa East 2.7mph /  4.3km/h 3.4mph /  5.5km/h 82% 0in /  0.0mm
21:02 28.6 °F /  -1.9 °C 23.7 °F /  -4.6 °C 30.1in /  1018.2hPa East 2mph /  3.2km/h 3.4mph /  5.5km/h 82% 0in /  0.0mm
21:07 28.6 °F /  -1.9 °C 23.7 °F /  -4.6 °C 30.1in /  1018.8hPa Calm   2.9mph /  4.7km/h 82% 0in /  0.0mm
21:12 28.2 °F /  -2.1 °C 23.5 °F /  -4.7 °C 30.1in /  1018.8hPa East 2.7mph /  4.3km/h 3.1mph /  5.0km/h 82% 0in /  0.0mm
21:17 28.2 °F /  -2.1 °C 23.7 °F /  -4.6 °C 30.1in /  1018.8hPa ESE 2.7mph /  4.3km/h 3.1mph /  5.0km/h 83% 0in /  0.0mm
21:22 28.6 °F /  -1.9 °C 24.3 °F /  -4.3 °C 30.1in /  1018.2hPa ESE 3.1mph /  5.0km/h 4mph /  6.4km/h 84% 0in /  0.0mm
21:27 28.6 °F /  -1.9 °C 24.4 °F /  -4.2 °C 30.1in /  1018.2hPa SE 3.8mph /  6.1km/h 4.3mph /  6.9km/h 84% 0in /  0.0mm
21:32 28.6 °F /  -1.9 °C 24.4 °F /  -4.2 °C 30.1in /  1018.2hPa ESE 3.6mph /  5.8km/h 4.3mph /  6.9km/h 84% 0in /  0.0mm
21:37 28.8 °F /  -1.8 °C 24.6 °F /  -4.1 °C 30.1in /  1018.2hPa SSE 5.4mph /  8.7km/h 7.6mph /  12.2km/h 84% 0in /  0.0mm
21:42 29.1 °F /  -1.6 °C 25.2 °F /  -3.8 °C 30.1in /  1018.2hPa SE 2.9mph /  4.7km/h 7.6mph /  12.2km/h 85% 0in /  0.0mm
21:47 29.5 °F /  -1.4 °C 25.3 °F /  -3.7 °C 30.1in /  1018.2hPa ESE 4mph /  6.4km/h 6mph /  9.7km/h 85% 0in /  0.0mm
21:52 29.5 °F /  -1.4 °C 25.2 °F /  -3.8 °C 30.1in /  1018.2hPa SSE 4mph /  6.4km/h 5.4mph /  8.7km/h 84% 0in /  0.0mm
21:57 29.5 °F /  -1.4 °C 25.3 °F /  -3.7 °C 30.1in /  1018.2hPa SSE 2.9mph /  4.7km/h 5.4mph /  8.7km/h 84% 0in /  0.0mm
22:02 29.5 °F /  -1.4 °C 25.3 °F /  -3.7 °C 30.1in /  1018.2hPa SSE 3.1mph /  5.0km/h 5.4mph /  8.7km/h 84% 0in /  0.0mm
22:07 29.5 °F /  -1.4 °C 25 °F /  -3.9 °C 30.1in /  1018.2hPa SSE 2.7mph /  4.3km/h 5.4mph /  8.7km/h 83% 0in /  0.0mm
22:12 29.5 °F /  -1.4 °C 24.8 °F /  -4.0 °C 30.1in /  1018.2hPa SE 2.7mph /  4.3km/h 4.3mph /  6.9km/h 83% 0in /  0.0mm
22:17 29.5 °F /  -1.4 °C 25 °F /  -3.9 °C 30.1in /  1018.2hPa SSE 3.8mph /  6.1km/h 5.8mph /  9.3km/h 83% 0in /  0.0mm
22:22 29.5 °F /  -1.4 °C 25 °F /  -3.9 °C 30.1in /  1018.2hPa South 4.9mph /  7.9km/h 5.8mph /  9.3km/h 83% 0in /  0.0mm
22:27 29.5 °F /  -1.4 °C 25 °F /  -3.9 °C 30.1in /  1018.2hPa SE 3.4mph /  5.5km/h 6.3mph /  10.1km/h 83% 0in /  0.0mm
22:32 29.5 °F /  -1.4 °C 25 °F /  -3.9 °C 30.1in /  1018.2hPa South 4.3mph /  6.9km/h 6.3mph /  10.1km/h 83% 0in /  0.0mm
22:37 29.5 °F /  -1.4 °C 24.4 °F /  -4.2 °C 30in /  1016.8hPa SSE 2.9mph /  4.7km/h 5.4mph /  8.7km/h 82% 0in /  0.0mm
22:42 29.5 °F /  -1.4 °C 24.4 °F /  -4.2 °C 30in /  1016.8hPa SSE 3.6mph /  5.8km/h 6.5mph /  10.5km/h 82% 0in /  0.0mm
22:47 29.5 °F /  -1.4 °C 24.4 °F /  -4.2 °C 30in /  1016.8hPa SSE 4.7mph /  7.6km/h 8.1mph /  13.0km/h 82% 0in /  0.0mm
22:57 29.1 °F /  -1.6 °C 24.4 °F /  -4.2 °C 30in /  1016.8hPa SSE 4.3mph /  6.9km/h 6.5mph /  10.5km/h 82% 0in /  0.0mm
23:02 29.1 °F /  -1.6 °C 24.4 °F /  -4.2 °C 30in /  1016.8hPa SSE 4.9mph /  7.9km/h 6.7mph /  10.8km/h 82% 0in /  0.0mm
23:07 28.9 °F /  -1.7 °C 24.3 °F /  -4.3 °C 30in /  1016.8hPa South 2mph /  3.2km/h 6.7mph /  10.8km/h 82% 0in /  0.0mm
23:12 28.9 °F /  -1.7 °C 24.3 °F /  -4.3 °C 30in /  1016.8hPa SSE 2.9mph /  4.7km/h 5.6mph /  9.0km/h 82% 0in /  0.0mm
23:17 28.8 °F /  -1.8 °C 24.1 °F /  -4.4 °C 30in /  1016.8hPa SSE 4.9mph /  7.9km/h 6.3mph /  10.1km/h 82% 0in /  0.0mm
23:22 28.8 °F /  -1.8 °C 24.1 °F /  -4.4 °C 30in /  1016.8hPa SE 4mph /  6.4km/h 6.7mph /  10.8km/h 82% 0in /  0.0mm
23:27 28.9 °F /  -1.7 °C 24.4 °F /  -4.2 °C 30in /  1016.8hPa ESE 4.3mph /  6.9km/h 7.6mph /  12.2km/h 83% 0in /  0.0mm
23:32 28.8 °F /  -1.8 °C 24.1 °F /  -4.4 °C 30in /  1016.8hPa ESE 3.6mph /  5.8km/h 7.6mph /  12.2km/h 82% 0in /  0.0mm
23:37 28.8 °F /  -1.8 °C 24.1 °F /  -4.4 °C 30in /  1016.8hPa SE 6mph /  9.7km/h 7.6mph /  12.2km/h 82% 0in /  0.0mm
23:42 28.8 °F /  -1.8 °C 24.1 °F /  -4.4 °C 30in /  1016.8hPa SE 4mph /  6.4km/h 6.5mph /  10.5km/h 82% 0in /  0.0mm
23:47 28.6 °F /  -1.9 °C 23.7 °F /  -4.6 °C 30in /  1016.8hPa SSE 3.1mph /  5.0km/h 6mph /  9.7km/h 82% 0in /  0.0mm
23:52 28.6 °F /  -1.9 °C 23.7 °F /  -4.6 °C 30in /  1016.8hPa SSE 2.2mph /  3.5km/h 7.4mph /  11.9km/h 82% 0in /  0.0mm
23:57 28.6 °F /  -1.9 °C 23.7 °F /  -4.6 °C 30in /  1016.8hPa SSE 2.9mph /  4.7km/h 7.4mph /  11.9km/h 82% 0in /  0.0mm
Données Historique de Météo Turbie

Mise a jour : 24/05/2018 15:38:14
Généré par Cumulus 1.9.4 (1099)